sensor_id;sensor_type;location;lat;lon;timestamp;temperature;humidity
3348;DHT22;1687;49.540;8.574;2023-07-30T00:01:57;21.60;83.50
3348;DHT22;1687;49.540;8.574;2023-07-30T00:04:24;21.60;83.90
3348;DHT22;1687;49.540;8.574;2023-07-30T00:06:50;21.60;84.20
3348;DHT22;1687;49.540;8.574;2023-07-30T00:09:16;21.50;84.30
3348;DHT22;1687;49.540;8.574;2023-07-30T00:11:42;21.50;84.70
3348;DHT22;1687;49.540;8.574;2023-07-30T00:14:07;21.50;85.30
3348;DHT22;1687;49.540;8.574;2023-07-30T00:16:33;21.40;85.50
3348;DHT22;1687;49.540;8.574;2023-07-30T00:18:59;21.30;85.90
3348;DHT22;1687;49.540;8.574;2023-07-30T00:21:24;21.30;86.50
3348;DHT22;1687;49.540;8.574;2023-07-30T00:23:50;21.30;87.30
3348;DHT22;1687;49.540;8.574;2023-07-30T00:26:16;21.30;87.80
3348;DHT22;1687;49.540;8.574;2023-07-30T00:28:41;21.40;88.60
3348;DHT22;1687;49.540;8.574;2023-07-30T00:31:07;21.40;89.00
3348;DHT22;1687;49.540;8.574;2023-07-30T00:33:33;21.40;89.50
3348;DHT22;1687;49.540;8.574;2023-07-30T00:35:58;21.40;90.00
3348;DHT22;1687;49.540;8.574;2023-07-30T00:38:24;21.30;90.30
3348;DHT22;1687;49.540;8.574;2023-07-30T00:40:50;21.30;90.50
3348;DHT22;1687;49.540;8.574;2023-07-30T00:43:16;21.30;90.90
3348;DHT22;1687;49.540;8.574;2023-07-30T00:45:44;21.30;91.20
3348;DHT22;1687;49.540;8.574;2023-07-30T00:48:11;21.30;91.40
3348;DHT22;1687;49.540;8.574;2023-07-30T00:50:38;21.30;91.90
3348;DHT22;1687;49.540;8.574;2023-07-30T00:53:04;21.30;92.10
3348;DHT22;1687;49.540;8.574;2023-07-30T00:55:31;21.20;92.30
3348;DHT22;1687;49.540;8.574;2023-07-30T00:57:57;21.20;92.80
3348;DHT22;1687;49.540;8.574;2023-07-30T01:00:23;21.20;92.90
3348;DHT22;1687;49.540;8.574;2023-07-30T01:02:51;21.20;93.40
3348;DHT22;1687;49.540;8.574;2023-07-30T01:05:17;21.20;93.70
3348;DHT22;1687;49.540;8.574;2023-07-30T01:07:43;21.30;94.10
3348;DHT22;1687;49.540;8.574;2023-07-30T01:10:09;21.30;94.40
3348;DHT22;1687;49.540;8.574;2023-07-30T01:12:35;21.30;94.50
3348;DHT22;1687;49.540;8.574;2023-07-30T01:15:03;21.30;94.60
3348;DHT22;1687;49.540;8.574;2023-07-30T01:17:29;21.20;94.90
3348;DHT22;1687;49.540;8.574;2023-07-30T01:19:55;21.20;95.20
3348;DHT22;1687;49.540;8.574;2023-07-30T01:22:22;21.20;95.30
3348;DHT22;1687;49.540;8.574;2023-07-30T01:24:49;21.30;95.70
3348;DHT22;1687;49.540;8.574;2023-07-30T01:27:49;21.30;95.90
3348;DHT22;1687;49.540;8.574;2023-07-30T01:30:21;21.30;95.90
3348;DHT22;1687;49.540;8.574;2023-07-30T01:32:52;21.20;96.00
3348;DHT22;1687;49.540;8.574;2023-07-30T01:35:21;21.30;96.50
3348;DHT22;1687;49.540;8.574;2023-07-30T01:37:48;21.30;96.80
3348;DHT22;1687;49.540;8.574;2023-07-30T01:40:14;21.30;96.60
3348;DHT22;1687;49.540;8.574;2023-07-30T01:42:40;21.40;97.20
3348;DHT22;1687;49.540;8.574;2023-07-30T01:45:06;21.40;96.90
3348;DHT22;1687;49.540;8.574;2023-07-30T01:47:32;21.40;97.20
3348;DHT22;1687;49.540;8.574;2023-07-30T01:49:58;21.30;97.30
3348;DHT22;1687;49.540;8.574;2023-07-30T01:52:23;21.40;97.70
3348;DHT22;1687;49.540;8.574;2023-07-30T01:54:49;21.40;97.80
3348;DHT22;1687;49.540;8.574;2023-07-30T01:57:15;21.50;97.90
3348;DHT22;1687;49.540;8.574;2023-07-30T01:59:40;21.50;97.80
3348;DHT22;1687;49.540;8.574;2023-07-30T02:02:06;21.50;98.00
3348;DHT22;1687;49.540;8.574;2023-07-30T02:04:33;21.40;97.80
3348;DHT22;1687;49.540;8.574;2023-07-30T02:06:59;21.40;97.90
3348;DHT22;1687;49.540;8.574;2023-07-30T02:09:24;21.40;98.20
3348;DHT22;1687;49.540;8.574;2023-07-30T02:11:50;21.40;98.20
3348;DHT22;1687;49.540;8.574;2023-07-30T02:14:18;21.40;98.50
3348;DHT22;1687;49.540;8.574;2023-07-30T02:16:44;21.40;98.60
3348;DHT22;1687;49.540;8.574;2023-07-30T02:19:10;21.40;98.70
3348;DHT22;1687;49.540;8.574;2023-07-30T02:21:35;21.40;98.70
3348;DHT22;1687;49.540;8.574;2023-07-30T02:24:04;21.40;98.90
3348;DHT22;1687;49.540;8.574;2023-07-30T02:26:30;21.40;98.80
3348;DHT22;1687;49.540;8.574;2023-07-30T02:28:55;21.40;98.90
3348;DHT22;1687;49.540;8.574;2023-07-30T02:31:21;21.30;98.90
3348;DHT22;1687;49.540;8.574;2023-07-30T02:33:47;21.30;99.20
3348;DHT22;1687;49.540;8.574;2023-07-30T02:36:12;21.30;99.20
3348;DHT22;1687;49.540;8.574;2023-07-30T02:38:38;21.30;99.20
3348;DHT22;1687;49.540;8.574;2023-07-30T02:41:03;21.30;99.40
3348;DHT22;1687;49.540;8.574;2023-07-30T02:43:29;21.20;99.30
3348;DHT22;1687;49.540;8.574;2023-07-30T02:45:55;21.20;99.40
3348;DHT22;1687;49.540;8.574;2023-07-30T02:48:20;21.20;99.60
3348;DHT22;1687;49.540;8.574;2023-07-30T02:50:46;21.10;99.60
3348;DHT22;1687;49.540;8.574;2023-07-30T02:53:12;21.10;99.80
3348;DHT22;1687;49.540;8.574;2023-07-30T02:55:37;21.10;99.80
3348;DHT22;1687;49.540;8.574;2023-07-30T02:58:03;21.10;99.90
3348;DHT22;1687;49.540;8.574;2023-07-30T03:00:29;21.10;99.90
3348;DHT22;1687;49.540;8.574;2023-07-30T03:02:55;21.10;99.90
3348;DHT22;1687;49.540;8.574;2023-07-30T03:05:21;21.10;99.90
3348;DHT22;1687;49.540;8.574;2023-07-30T03:07:47;21.20;99.90
3348;DHT22;1687;49.540;8.574;2023-07-30T03:10:12;21.30;99.90
3348;DHT22;1687;49.540;8.574;2023-07-30T03:12:38;21.30;99.90
3348;DHT22;1687;49.540;8.574;2023-07-30T03:15:04;21.30;99.90
3348;DHT22;1687;49.540;8.574;2023-07-30T03:17:30;21.30;99.90
3348;DHT22;1687;49.540;8.574;2023-07-30T03:19:56;21.30;99.90
3348;DHT22;1687;49.540;8.574;2023-07-30T03:22:21;21.30;99.90
3348;DHT22;1687;49.540;8.574;2023-07-30T03:24:47;21.30;99.90
3348;DHT22;1687;49.540;8.574;2023-07-30T03:27:13;21.40;99.90
3348;DHT22;1687;49.540;8.574;2023-07-30T03:29:39;21.40;99.90
3348;DHT22;1687;49.540;8.574;2023-07-30T03:32:05;21.30;99.90
3348;DHT22;1687;49.540;8.574;2023-07-30T03:34:31;21.20;99.90
3348;DHT22;1687;49.540;8.574;2023-07-30T03:36:56;21.20;99.90
3348;DHT22;1687;49.540;8.574;2023-07-30T03:39:23;21.20;99.90
3348;DHT22;1687;49.540;8.574;2023-07-30T03:41:48;21.10;99.90
3348;DHT22;1687;49.540;8.574;2023-07-30T03:44:14;21.10;99.90
3348;DHT22;1687;49.540;8.574;2023-07-30T03:46:40;21.10;99.90
3348;DHT22;1687;49.540;8.574;2023-07-30T03:49:05;21.10;99.90
3348;DHT22;1687;49.540;8.574;2023-07-30T03:51:32;21.10;99.90
3348;DHT22;1687;49.540;8.574;2023-07-30T03:53:58;21.10;99.90
3348;DHT22;1687;49.540;8.574;2023-07-30T03:56:23;21.10;99.90
3348;DHT22;1687;49.540;8.574;2023-07-30T03:58:50;21.20;99.90
3348;DHT22;1687;49.540;8.574;2023-07-30T04:01:16;21.20;99.90
3348;DHT22;1687;49.540;8.574;2023-07-30T04:03:41;21.10;99.90
3348;DHT22;1687;49.540;8.574;2023-07-30T04:06:07;21.10;99.90
3348;DHT22;1687;49.540;8.574;2023-07-30T04:08:33;21.00;99.90
3348;DHT22;1687;49.540;8.574;2023-07-30T04:10:58;21.10;99.90
3348;DHT22;1687;49.540;8.574;2023-07-30T04:13:24;21.10;99.90
3348;DHT22;1687;49.540;8.574;2023-07-30T04:15:50;21.10;99.90
3348;DHT22;1687;49.540;8.574;2023-07-30T04:18:16;21.10;99.90
3348;DHT22;1687;49.540;8.574;2023-07-30T04:20:41;21.20;99.90
3348;DHT22;1687;49.540;8.574;2023-07-30T04:23:07;21.20;99.90
3348;DHT22;1687;49.540;8.574;2023-07-30T04:25:33;21.20;99.90
3348;DHT22;1687;49.540;8.574;2023-07-30T04:27:58;21.20;99.90
3348;DHT22;1687;49.540;8.574;2023-07-30T04:30:24;21.10;99.90
3348;DHT22;1687;49.540;8.574;2023-07-30T04:32:50;21.00;99.90
3348;DHT22;1687;49.540;8.574;2023-07-30T04:35:15;21.00;99.90
3348;DHT22;1687;49.540;8.574;2023-07-30T04:37:41;21.00;99.90
3348;DHT22;1687;49.540;8.574;2023-07-30T04:40:07;21.00;99.90
3348;DHT22;1687;49.540;8.574;2023-07-30T04:42:34;21.00;99.90
3348;DHT22;1687;49.540;8.574;2023-07-30T04:44:59;21.00;99.90
3348;DHT22;1687;49.540;8.574;2023-07-30T04:47:25;21.00;99.90
3348;DHT22;1687;49.540;8.574;2023-07-30T04:49:51;20.90;99.90
3348;DHT22;1687;49.540;8.574;2023-07-30T04:52:16;21.00;99.90
3348;DHT22;1687;49.540;8.574;2023-07-30T04:54:42;21.10;99.90
3348;DHT22;1687;49.540;8.574;2023-07-30T04:57:08;21.10;99.90
3348;DHT22;1687;49.540;8.574;2023-07-30T04:59:34;21.10;99.90
3348;DHT22;1687;49.540;8.574;2023-07-30T05:02:00;21.10;99.90
3348;DHT22;1687;49.540;8.574;2023-07-30T05:04:26;21.10;99.90
3348;DHT22;1687;49.540;8.574;2023-07-30T05:06:52;21.20;99.90
3348;DHT22;1687;49.540;8.574;2023-07-30T05:09:17;21.30;99.90
3348;DHT22;1687;49.540;8.574;2023-07-30T05:11:43;21.30;99.90
3348;DHT22;1687;49.540;8.574;2023-07-30T05:14:09;21.30;99.90
3348;DHT22;1687;49.540;8.574;2023-07-30T05:16:34;21.30;99.90
3348;DHT22;1687;49.540;8.574;2023-07-30T05:19:01;21.20;99.90
3348;DHT22;1687;49.540;8.574;2023-07-30T05:21:27;21.20;99.90
3348;DHT22;1687;49.540;8.574;2023-07-30T05:23:53;21.20;99.90
3348;DHT22;1687;49.540;8.574;2023-07-30T05:26:19;21.10;99.90
3348;DHT22;1687;49.540;8.574;2023-07-30T05:28:44;21.10;99.90
3348;DHT22;1687;49.540;8.574;2023-07-30T05:31:10;21.10;99.90
3348;DHT22;1687;49.540;8.574;2023-07-30T05:33:35;21.10;99.90
3348;DHT22;1687;49.540;8.574;2023-07-30T05:36:01;21.10;99.90
3348;DHT22;1687;49.540;8.574;2023-07-30T05:38:27;21.20;99.90
3348;DHT22;1687;49.540;8.574;2023-07-30T05:40:53;21.20;99.90
3348;DHT22;1687;49.540;8.574;2023-07-30T05:43:19;21.20;99.90
3348;DHT22;1687;49.540;8.574;2023-07-30T05:45:44;21.30;99.90
3348;DHT22;1687;49.540;8.574;2023-07-30T05:48:10;21.20;99.90
3348;DHT22;1687;49.540;8.574;2023-07-30T05:50:36;21.10;99.90
3348;DHT22;1687;49.540;8.574;2023-07-30T05:53:01;21.10;99.90
3348;DHT22;1687;49.540;8.574;2023-07-30T05:55:27;21.20;99.90
3348;DHT22;1687;49.540;8.574;2023-07-30T05:57:53;21.30;99.90
3348;DHT22;1687;49.540;8.574;2023-07-30T06:00:19;21.40;99.90
3348;DHT22;1687;49.540;8.574;2023-07-30T06:02:45;21.50;99.90
3348;DHT22;1687;49.540;8.574;2023-07-30T06:05:10;21.60;99.90
3348;DHT22;1687;49.540;8.574;2023-07-30T06:07:36;21.80;99.90
3348;DHT22;1687;49.540;8.574;2023-07-30T06:10:02;21.80;99.90
3348;DHT22;1687;49.540;8.574;2023-07-30T06:12:28;21.80;99.90
3348;DHT22;1687;49.540;8.574;2023-07-30T06:14:54;21.90;99.90
3348;DHT22;1687;49.540;8.574;2023-07-30T06:17:19;22.00;99.90
3348;DHT22;1687;49.540;8.574;2023-07-30T06:19:45;22.10;99.90
3348;DHT22;1687;49.540;8.574;2023-07-30T06:22:11;22.20;99.90
3348;DHT22;1687;49.540;8.574;2023-07-30T06:24:36;22.30;99.90
3348;DHT22;1687;49.540;8.574;2023-07-30T06:27:02;22.50;99.90
3348;DHT22;1687;49.540;8.574;2023-07-30T06:29:28;22.60;99.90
3348;DHT22;1687;49.540;8.574;2023-07-30T06:31:54;22.60;99.90
3348;DHT22;1687;49.540;8.574;2023-07-30T06:34:19;22.60;99.90
3348;DHT22;1687;49.540;8.574;2023-07-30T06:36:45;22.70;99.90
3348;DHT22;1687;49.540;8.574;2023-07-30T06:39:10;22.80;99.90
3348;DHT22;1687;49.540;8.574;2023-07-30T06:41:36;22.80;99.90
3348;DHT22;1687;49.540;8.574;2023-07-30T06:44:02;22.80;99.90
3348;DHT22;1687;49.540;8.574;2023-07-30T06:46:28;22.80;99.90
3348;DHT22;1687;49.540;8.574;2023-07-30T06:48:53;22.90;99.90
3348;DHT22;1687;49.540;8.574;2023-07-30T06:51:19;22.80;99.90
3348;DHT22;1687;49.540;8.574;2023-07-30T06:53:45;22.90;99.90
3348;DHT22;1687;49.540;8.574;2023-07-30T06:56:11;22.90;99.90
3348;DHT22;1687;49.540;8.574;2023-07-30T06:58:37;22.90;99.90
3348;DHT22;1687;49.540;8.574;2023-07-30T07:01:02;22.90;99.90
3348;DHT22;1687;49.540;8.574;2023-07-30T07:03:28;23.00;99.90
3348;DHT22;1687;49.540;8.574;2023-07-30T07:05:55;23.10;99.90
3348;DHT22;1687;49.540;8.574;2023-07-30T07:08:21;23.10;99.90
3348;DHT22;1687;49.540;8.574;2023-07-30T07:10:47;23.20;99.90
3348;DHT22;1687;49.540;8.574;2023-07-30T07:13:13;23.20;99.90
3348;DHT22;1687;49.540;8.574;2023-07-30T07:15:42;23.30;99.90
3348;DHT22;1687;49.540;8.574;2023-07-30T07:18:09;23.30;99.90
3348;DHT22;1687;49.540;8.574;2023-07-30T07:20:35;23.40;99.90
3348;DHT22;1687;49.540;8.574;2023-07-30T07:23:01;23.50;99.90
3348;DHT22;1687;49.540;8.574;2023-07-30T07:25:27;23.50;99.90
3348;DHT22;1687;49.540;8.574;2023-07-30T07:27:53;23.40;99.90
3348;DHT22;1687;49.540;8.574;2023-07-30T07:30:18;23.30;99.90
3348;DHT22;1687;49.540;8.574;2023-07-30T07:32:44;23.30;99.90
3348;DHT22;1687;49.540;8.574;2023-07-30T07:35:10;23.30;99.90
3348;DHT22;1687;49.540;8.574;2023-07-30T07:37:35;23.20;99.90
3348;DHT22;1687;49.540;8.574;2023-07-30T07:40:01;23.20;99.90
3348;DHT22;1687;49.540;8.574;2023-07-30T07:42:29;23.10;99.90
3348;DHT22;1687;49.540;8.574;2023-07-30T07:44:56;22.90;99.90
3348;DHT22;1687;49.540;8.574;2023-07-30T07:47:21;22.90;99.90
3348;DHT22;1687;49.540;8.574;2023-07-30T07:49:47;22.90;99.90
3348;DHT22;1687;49.540;8.574;2023-07-30T07:52:13;22.90;99.90
3348;DHT22;1687;49.540;8.574;2023-07-30T07:54:40;22.80;99.90
3348;DHT22;1687;49.540;8.574;2023-07-30T07:57:07;22.70;99.90
3348;DHT22;1687;49.540;8.574;2023-07-30T07:59:33;22.90;99.90
3348;DHT22;1687;49.540;8.574;2023-07-30T08:01:58;23.00;99.90
3348;DHT22;1687;49.540;8.574;2023-07-30T08:04:24;23.10;99.90
3348;DHT22;1687;49.540;8.574;2023-07-30T08:06:50;23.30;99.90
3348;DHT22;1687;49.540;8.574;2023-07-30T08:09:15;23.40;99.90
3348;DHT22;1687;49.540;8.574;2023-07-30T08:11:41;23.60;99.90
3348;DHT22;1687;49.540;8.574;2023-07-30T08:14:07;23.50;99.90
3348;DHT22;1687;49.540;8.574;2023-07-30T08:16:32;23.40;99.90
3348;DHT22;1687;49.540;8.574;2023-07-30T08:18:58;23.30;99.90
3348;DHT22;1687;49.540;8.574;2023-07-30T08:21:25;23.30;99.90
3348;DHT22;1687;49.540;8.574;2023-07-30T08:23:50;23.30;99.90
3348;DHT22;1687;49.540;8.574;2023-07-30T08:26:16;23.40;99.90
3348;DHT22;1687;49.540;8.574;2023-07-30T08:28:42;23.60;99.90
3348;DHT22;1687;49.540;8.574;2023-07-30T08:31:07;23.70;99.90
3348;DHT22;1687;49.540;8.574;2023-07-30T08:33:33;23.70;99.90
3348;DHT22;1687;49.540;8.574;2023-07-30T08:35:59;23.70;99.90
3348;DHT22;1687;49.540;8.574;2023-07-30T08:38:25;23.70;99.90
3348;DHT22;1687;49.540;8.574;2023-07-30T08:40:51;23.50;99.90
3348;DHT22;1687;49.540;8.574;2023-07-30T08:43:18;23.40;99.90
3348;DHT22;1687;49.540;8.574;2023-07-30T08:45:44;23.40;99.90
3348;DHT22;1687;49.540;8.574;2023-07-30T08:48:10;23.40;99.90
3348;DHT22;1687;49.540;8.574;2023-07-30T08:50:37;23.40;99.60
3348;DHT22;1687;49.540;8.574;2023-07-30T08:53:02;23.40;99.40
3348;DHT22;1687;49.540;8.574;2023-07-30T08:55:29;23.50;99.20
3348;DHT22;1687;49.540;8.574;2023-07-30T08:58:01;23.70;98.90
3348;DHT22;1687;49.540;8.574;2023-07-30T09:00:31;24.00;99.00
3348;DHT22;1687;49.540;8.574;2023-07-30T09:03:00;24.10;97.90
3348;DHT22;1687;49.540;8.574;2023-07-30T09:05:29;24.10;97.10
3348;DHT22;1687;49.540;8.574;2023-07-30T09:07:56;24.20;96.50
3348;DHT22;1687;49.540;8.574;2023-07-30T09:10:23;24.30;95.80
3348;DHT22;1687;49.540;8.574;2023-07-30T09:12:55;24.40;95.30
3348;DHT22;1687;49.540;8.574;2023-07-30T09:15:35;24.60;94.40
3348;DHT22;1687;49.540;8.574;2023-07-30T09:18:05;24.60;93.20
3348;DHT22;1687;49.540;8.574;2023-07-30T09:20:38;24.50;92.50
3348;DHT22;1687;49.540;8.574;2023-07-30T09:23:06;24.50;92.00
3348;DHT22;1687;49.540;8.574;2023-07-30T09:25:33;24.60;91.60
3348;DHT22;1687;49.540;8.574;2023-07-30T09:27:59;24.70;91.10
3348;DHT22;1687;49.540;8.574;2023-07-30T09:30:25;24.70;90.40
3348;DHT22;1687;49.540;8.574;2023-07-30T09:32:56;24.60;89.60
3348;DHT22;1687;49.540;8.574;2023-07-30T09:35:23;24.70;88.80
3348;DHT22;1687;49.540;8.574;2023-07-30T09:37:51;24.70;88.50
3348;DHT22;1687;49.540;8.574;2023-07-30T09:40:34;24.80;87.90
3348;DHT22;1687;49.540;8.574;2023-07-30T09:43:05;24.90;86.60
3348;DHT22;1687;49.540;8.574;2023-07-30T09:45:34;24.80;85.70
3348;DHT22;1687;49.540;8.574;2023-07-30T09:48:03;24.70;84.90
3348;DHT22;1687;49.540;8.574;2023-07-30T09:50:30;24.70;84.20
3348;DHT22;1687;49.540;8.574;2023-07-30T09:52:59;24.60;83.60
3348;DHT22;1687;49.540;8.574;2023-07-30T09:55:26;24.40;83.30
3348;DHT22;1687;49.540;8.574;2023-07-30T09:57:52;24.40;82.40
3348;DHT22;1687;49.540;8.574;2023-07-30T10:00:18;24.20;81.20
3348;DHT22;1687;49.540;8.574;2023-07-30T10:02:45;24.00;80.50
3348;DHT22;1687;49.540;8.574;2023-07-30T10:05:18;23.90;80.60
3348;DHT22;1687;49.540;8.574;2023-07-30T10:07:49;24.00;80.30
3348;DHT22;1687;49.540;8.574;2023-07-30T10:10:22;24.00;79.70
3348;DHT22;1687;49.540;8.574;2023-07-30T10:12:50;24.20;79.80
3348;DHT22;1687;49.540;8.574;2023-07-30T10:15:19;24.30;79.00
3348;DHT22;1687;49.540;8.574;2023-07-30T10:17:46;24.30;78.50
3348;DHT22;1687;49.540;8.574;2023-07-30T10:20:21;24.50;78.50
3348;DHT22;1687;49.540;8.574;2023-07-30T10:22:54;24.80;78.50
3348;DHT22;1687;49.540;8.574;2023-07-30T10:25:22;24.70;77.10
3348;DHT22;1687;49.540;8.574;2023-07-30T10:27:52;24.60;76.40
3348;DHT22;1687;49.540;8.574;2023-07-30T10:30:19;24.60;76.60
3348;DHT22;1687;49.540;8.574;2023-07-30T10:35:54;24.70;76.00
3348;DHT22;1687;49.540;8.574;2023-07-30T10:38:29;24.70;75.90
3348;DHT22;1687;49.540;8.574;2023-07-30T10:41:15;24.70;75.20
3348;DHT22;1687;49.540;8.574;2023-07-30T10:43:50;24.70;75.00
3348;DHT22;1687;49.540;8.574;2023-07-30T10:46:18;24.70;75.00
3348;DHT22;1687;49.540;8.574;2023-07-30T10:48:45;24.60;74.40
3348;DHT22;1687;49.540;8.574;2023-07-30T10:51:14;24.40;73.80
3348;DHT22;1687;49.540;8.574;2023-07-30T10:53:45;24.40;73.60
3348;DHT22;1687;49.540;8.574;2023-07-30T10:56:13;24.40;73.50
3348;DHT22;1687;49.540;8.574;2023-07-30T10:58:42;24.40;72.80
3348;DHT22;1687;49.540;8.574;2023-07-30T11:01:09;24.40;72.30
3348;DHT22;1687;49.540;8.574;2023-07-30T11:03:36;24.40;72.20
3348;DHT22;1687;49.540;8.574;2023-07-30T11:06:03;24.40;72.10
3348;DHT22;1687;49.540;8.574;2023-07-30T11:08:37;24.50;72.00
3348;DHT22;1687;49.540;8.574;2023-07-30T11:11:09;24.60;71.60
3348;DHT22;1687;49.540;8.574;2023-07-30T11:13:36;24.50;71.00
3348;DHT22;1687;49.540;8.574;2023-07-30T11:16:08;24.40;71.00
3348;DHT22;1687;49.540;8.574;2023-07-30T11:18:36;24.40;70.90
3348;DHT22;1687;49.540;8.574;2023-07-30T11:21:07;24.60;71.20
3348;DHT22;1687;49.540;8.574;2023-07-30T11:23:35;24.80;70.90
3348;DHT22;1687;49.540;8.574;2023-07-30T11:26:03;24.90;70.70
3348;DHT22;1687;49.540;8.574;2023-07-30T11:28:35;25.00;70.50
3348;DHT22;1687;49.540;8.574;2023-07-30T11:31:06;25.00;70.10
3348;DHT22;1687;49.540;8.574;2023-07-30T11:33:35;24.90;69.70
3348;DHT22;1687;49.540;8.574;2023-07-30T11:36:03;24.60;68.60
3348;DHT22;1687;49.540;8.574;2023-07-30T11:38:30;24.30;68.50
3348;DHT22;1687;49.540;8.574;2023-07-30T11:40:56;24.10;68.20
3348;DHT22;1687;49.540;8.574;2023-07-30T11:43:22;24.00;67.90
3348;DHT22;1687;49.540;8.574;2023-07-30T11:45:49;24.00;68.00
3348;DHT22;1687;49.540;8.574;2023-07-30T11:48:15;24.00;68.00
3348;DHT22;1687;49.540;8.574;2023-07-30T11:50:48;24.10;67.70
3348;DHT22;1687;49.540;8.574;2023-07-30T11:53:18;24.30;67.60
3348;DHT22;1687;49.540;8.574;2023-07-30T11:55:45;24.50;67.30
3348;DHT22;1687;49.540;8.574;2023-07-30T11:58:12;24.60;67.20
3348;DHT22;1687;49.540;8.574;2023-07-30T12:00:39;24.50;66.60
3348;DHT22;1687;49.540;8.574;2023-07-30T12:03:08;24.50;66.40
3348;DHT22;1687;49.540;8.574;2023-07-30T12:05:37;24.60;66.10
3348;DHT22;1687;49.540;8.574;2023-07-30T12:08:05;24.70;65.70
3348;DHT22;1687;49.540;8.574;2023-07-30T12:10:46;24.50;65.20
3348;DHT22;1687;49.540;8.574;2023-07-30T12:13:18;24.60;65.20
3348;DHT22;1687;49.540;8.574;2023-07-30T12:15:54;24.60;64.60
3348;DHT22;1687;49.540;8.574;2023-07-30T12:18:21;24.60;64.50
3348;DHT22;1687;49.540;8.574;2023-07-30T12:20:49;24.60;63.90
3348;DHT22;1687;49.540;8.574;2023-07-30T12:23:16;24.40;63.90
3348;DHT22;1687;49.540;8.574;2023-07-30T12:25:42;24.50;63.90
3348;DHT22;1687;49.540;8.574;2023-07-30T12:28:09;24.60;64.00
3348;DHT22;1687;49.540;8.574;2023-07-30T12:30:34;24.80;63.70
3348;DHT22;1687;49.540;8.574;2023-07-30T12:33:02;24.60;62.80
3348;DHT22;1687;49.540;8.574;2023-07-30T12:35:29;24.40;62.60
3348;DHT22;1687;49.540;8.574;2023-07-30T12:37:55;24.30;62.50
3348;DHT22;1687;49.540;8.574;2023-07-30T12:40:21;24.30;62.70
3348;DHT22;1687;49.540;8.574;2023-07-30T12:42:46;24.30;62.30
3348;DHT22;1687;49.540;8.574;2023-07-30T12:45:12;24.30;62.10
3348;DHT22;1687;49.540;8.574;2023-07-30T12:47:38;24.30;61.60
3348;DHT22;1687;49.540;8.574;2023-07-30T12:50:04;24.30;61.50
3348;DHT22;1687;49.540;8.574;2023-07-30T12:52:32;24.30;61.30
3348;DHT22;1687;49.540;8.574;2023-07-30T12:54:58;24.30;61.40
3348;DHT22;1687;49.540;8.574;2023-07-30T12:57:23;24.30;60.90
3348;DHT22;1687;49.540;8.574;2023-07-30T12:59:49;24.20;61.10
3348;DHT22;1687;49.540;8.574;2023-07-30T13:02:15;24.40;61.30
3348;DHT22;1687;49.540;8.574;2023-07-30T13:04:40;24.60;61.30
3348;DHT22;1687;49.540;8.574;2023-07-30T13:07:06;24.50;60.00
3348;DHT22;1687;49.540;8.574;2023-07-30T13:09:32;24.40;60.20
3348;DHT22;1687;49.540;8.574;2023-07-30T13:11:57;24.40;60.30
3348;DHT22;1687;49.540;8.574;2023-07-30T13:14:23;24.50;60.10
3348;DHT22;1687;49.540;8.574;2023-07-30T13:16:49;24.90;60.50
3348;DHT22;1687;49.540;8.574;2023-07-30T13:19:15;25.00;59.80
3348;DHT22;1687;49.540;8.574;2023-07-30T13:21:40;25.00;59.70
3348;DHT22;1687;49.540;8.574;2023-07-30T13:24:06;24.90;59.40
3348;DHT22;1687;49.540;8.574;2023-07-30T13:26:32;24.80;59.30
3348;DHT22;1687;49.540;8.574;2023-07-30T13:28:57;24.70;59.10
3348;DHT22;1687;49.540;8.574;2023-07-30T13:31:23;24.60;59.00
3348;DHT22;1687;49.540;8.574;2023-07-30T13:33:49;24.60;59.10
3348;DHT22;1687;49.540;8.574;2023-07-30T13:36:16;24.60;59.10
3348;DHT22;1687;49.540;8.574;2023-07-30T13:38:42;24.70;59.10
3348;DHT22;1687;49.540;8.574;2023-07-30T13:41:09;24.80;59.00
3348;DHT22;1687;49.540;8.574;2023-07-30T13:43:35;24.90;58.80
3348;DHT22;1687;49.540;8.574;2023-07-30T13:46:00;25.00;58.60
3348;DHT22;1687;49.540;8.574;2023-07-30T13:48:26;24.90;58.20
3348;DHT22;1687;49.540;8.574;2023-07-30T13:50:52;24.80;58.10
3348;DHT22;1687;49.540;8.574;2023-07-30T13:53:18;24.70;58.00
3348;DHT22;1687;49.540;8.574;2023-07-30T13:55:45;24.80;58.30
3348;DHT22;1687;49.540;8.574;2023-07-30T13:58:10;25.00;58.60
3348;DHT22;1687;49.540;8.574;2023-07-30T14:00:36;25.50;58.90
3348;DHT22;1687;49.540;8.574;2023-07-30T14:03:02;25.70;58.30
3348;DHT22;1687;49.540;8.574;2023-07-30T14:05:28;25.70;57.70
3348;DHT22;1687;49.540;8.574;2023-07-30T14:07:54;26.00;57.90
3348;DHT22;1687;49.540;8.574;2023-07-30T14:10:22;26.00;57.00
3348;DHT22;1687;49.540;8.574;2023-07-30T14:12:48;25.70;56.50
3348;DHT22;1687;49.540;8.574;2023-07-30T14:15:14;25.40;56.90
3348;DHT22;1687;49.540;8.574;2023-07-30T14:17:41;25.30;56.80
3348;DHT22;1687;49.540;8.574;2023-07-30T14:20:07;25.40;57.10
3348;DHT22;1687;49.540;8.574;2023-07-30T14:22:34;26.20;57.30
3348;DHT22;1687;49.540;8.574;2023-07-30T14:25:00;26.90;56.50
3348;DHT22;1687;49.540;8.574;2023-07-30T14:27:26;26.70;55.80
3348;DHT22;1687;49.540;8.574;2023-07-30T14:29:51;28.00;56.80
3348;DHT22;1687;49.540;8.574;2023-07-30T14:32:19;29.30;55.60
3348;DHT22;1687;49.540;8.574;2023-07-30T14:34:45;30.40;55.10
3348;DHT22;1687;49.540;8.574;2023-07-30T14:37:11;30.40;53.50
3348;DHT22;1687;49.540;8.574;2023-07-30T14:39:36;29.70;52.80
3348;DHT22;1687;49.540;8.574;2023-07-30T14:42:02;28.90;52.50
3348;DHT22;1687;49.540;8.574;2023-07-30T14:44:28;28.10;52.50
3348;DHT22;1687;49.540;8.574;2023-07-30T14:46:54;27.60;53.20
3348;DHT22;1687;49.540;8.574;2023-07-30T14:49:19;27.50;52.80
3348;DHT22;1687;49.540;8.574;2023-07-30T14:51:45;27.80;53.20
3348;DHT22;1687;49.540;8.574;2023-07-30T14:54:12;27.80;52.80
3348;DHT22;1687;49.540;8.574;2023-07-30T14:56:38;27.60;52.10
3348;DHT22;1687;49.540;8.574;2023-07-30T14:59:04;27.10;51.90
3348;DHT22;1687;49.540;8.574;2023-07-30T15:01:30;26.70;52.10
3348;DHT22;1687;49.540;8.574;2023-07-30T15:03:56;27.20;53.10
3348;DHT22;1687;49.540;8.574;2023-07-30T15:06:25;27.70;52.30
3348;DHT22;1687;49.540;8.574;2023-07-30T15:08:54;27.30;51.70
3348;DHT22;1687;49.540;8.574;2023-07-30T15:11:19;27.70;52.30
3348;DHT22;1687;49.540;8.574;2023-07-30T15:13:45;28.00;51.80
3348;DHT22;1687;49.540;8.574;2023-07-30T15:16:11;28.70;52.00
3348;DHT22;1687;49.540;8.574;2023-07-30T15:18:36;29.30;51.30
3348;DHT22;1687;49.540;8.574;2023-07-30T15:21:02;29.60;50.90
3348;DHT22;1687;49.540;8.574;2023-07-30T15:23:28;29.70;50.90
3348;DHT22;1687;49.540;8.574;2023-07-30T15:25:54;30.40;51.00
3348;DHT22;1687;49.540;8.574;2023-07-30T15:28:20;30.00;49.50
3348;DHT22;1687;49.540;8.574;2023-07-30T15:30:45;29.00;49.30
3348;DHT22;1687;49.540;8.574;2023-07-30T15:33:11;29.30;50.50
3348;DHT22;1687;49.540;8.574;2023-07-30T15:35:37;30.60;50.20
3348;DHT22;1687;49.540;8.574;2023-07-30T15:38:07;31.50;50.00
3348;DHT22;1687;49.540;8.574;2023-07-30T15:40:33;32.40;48.90
3348;DHT22;1687;49.540;8.574;2023-07-30T15:43:01;32.20;47.10
3348;DHT22;1687;49.540;8.574;2023-07-30T15:45:28;31.20;47.30
3348;DHT22;1687;49.540;8.574;2023-07-30T15:47:54;30.40;46.60
3348;DHT22;1687;49.540;8.574;2023-07-30T15:50:19;29.70;46.70
3348;DHT22;1687;49.540;8.574;2023-07-30T15:52:49;29.60;47.90
3348;DHT22;1687;49.540;8.574;2023-07-30T15:55:15;30.50;47.80
3348;DHT22;1687;49.540;8.574;2023-07-30T15:57:41;30.20;47.00
3348;DHT22;1687;49.540;8.574;2023-07-30T16:00:07;29.20;46.80
3348;DHT22;1687;49.540;8.574;2023-07-30T16:02:34;28.30;46.90